Time;durP1;ratioP1;P1;durP2;ratioP2;P2;SDS_P1;SDS_P2;PMS_P1;PMS_P2;Temp;Humidity;BMP_temperature;BMP_pressure;BME280_temperature;BME280_humidity;BME280_pressure;Samples;Min_cycle;Max_cycle;Signal;HPM_P1;HPM_P2
2023/01/04 00:00:59;;;;;;;4.80;4.10;;;;;;;;;;5014487;28;20480;-71
2023/01/04 00:03:48;;;;;;;5.57;3.60;;;;;;;;;;5018191;28;20498;-74
2023/01/04 00:06:43;;;;;;;5.43;3.40;;;;;;;;;;5005763;28;20964;-73
2023/01/04 00:09:33;;;;;;;3.43;3.13;;;;;;;;;;5001894;28;20460;-73
2023/01/04 00:12:37;;;;;;;5.43;3.23;;;;;;;;;;5001757;28;20530;-74
2023/01/04 00:15:27;;;;;;;4.60;3.17;;;;;;;;;;4998190;28;20494;-71
2023/01/04 00:18:16;;;;;;;3.60;3.10;;;;;;;;;;4998542;28;20845;-73
2023/01/04 00:21:16;;;;;;;3.37;3.10;;;;;;;;;;4995383;28;20472;-76
2023/01/04 00:24:15;;;;;;;4.33;3.20;;;;;;;;;;4999577;28;21031;-75
2023/01/04 00:27:05;;;;;;;5.80;3.17;;;;;;;;;;5007417;28;21106;-75
2023/01/04 00:29:54;;;;;;;2.93;2.50;;;;;;;;;;5016151;28;20457;-74
2023/01/04 00:32:45;;;;;;;3.13;2.80;;;;;;;;;;5018022;28;20491;-73
2023/01/04 00:35:36;;;;;;;3.67;2.80;;;;;;;;;;5018797;28;20504;-74
2023/01/04 00:38:37;;;;;;;4.93;2.67;;;;;;;;;;4998474;28;20523;-75
2023/01/04 00:41:28;;;;;;;3.93;2.30;;;;;;;;;;4998416;28;20630;-75
2023/01/04 00:44:37;;;;;;;3.33;2.43;;;;;;;;;;5010002;28;20516;-73
2023/01/04 00:47:25;;;;;;;3.23;2.53;;;;;;;;;;5001562;28;20456;-74
2023/01/04 00:50:21;;;;;;;3.97;2.50;;;;;;;;;;5011265;28;20462;-76
2023/01/04 00:53:13;;;;;;;6.27;3.10;;;;;;;;;;5013345;28;20496;-76
2023/01/04 00:56:01;;;;;;;2.63;2.43;;;;;;;;;;4998334;28;20452;-75
2023/01/04 00:58:56;;;;;;;2.87;2.20;;;;;;;;;;5004346;28;20566;-75
2023/01/04 01:01:45;;;;;;;2.77;2.37;;;;;;;;;;5010182;28;20479;-71
2023/01/04 01:04:34;;;;;;;2.30;2.10;;;;;;;;;;5005950;28;20491;-74
2023/01/04 01:07:26;;;;;;;2.90;2.30;;;;;;;;;;4997664;28;20472;-74
2023/01/04 01:10:15;;;;;;;3.93;2.30;;;;;;;;;;4995616;28;21063;-74
2023/01/04 01:13:07;;;;;;;2.67;2.07;;;;;;;;;;5010167;28;20467;-74
2023/01/04 01:16:02;;;;;;;2.80;2.27;;;;;;;;;;4998481;28;20526;-75
2023/01/04 01:18:51;;;;;;;2.40;2.10;;;;;;;;;;5001036;28;20495;-74
2023/01/04 01:21:40;;;;;;;3.30;2.27;;;;;;;;;;4997365;28;20480;-72
2023/01/04 01:24:29;;;;;;;3.43;2.07;;;;;;;;;;5000078;28;20717;-73
2023/01/04 01:27:21;;;;;;;2.60;2.03;;;;;;;;;;4999603;28;20583;-73
2023/01/04 01:30:12;;;;;;;1.70;1.60;;;;;;;;;;5006353;28;20948;-71
2023/01/04 01:33:02;;;;;;;3.77;1.97;;;;;;;;;;5009738;28;20460;-72
2023/01/04 01:35:50;;;;;;;2.80;1.90;;;;;;;;;;5016016;28;20456;-71
2023/01/04 01:38:39;;;;;;;2.20;2.00;;;;;;;;;;5015201;28;20853;-73
2023/01/04 01:41:30;;;;;;;6.60;2.00;;;;;;;;;;5019577;28;20475;-72
2023/01/04 01:44:40;;;;;;;1.87;1.70;;;;;;;;;;5017995;28;20500;-71
2023/01/04 01:47:31;;;;;;;2.03;1.90;;;;;;;;;;5016820;28;20475;-71
2023/01/04 01:50:25;;;;;;;3.00;1.77;;;;;;;;;;5016361;28;20472;-71
2023/01/04 01:53:15;;;;;;;2.63;1.70;;;;;;;;;;5018503;28;20979;-72
2023/01/04 01:56:04;;;;;;;5.17;2.30;;;;;;;;;;5016964;28;20472;-72
2023/01/04 01:58:56;;;;;;;2.60;2.30;;;;;;;;;;5021020;28;20819;-72
2023/01/04 02:01:45;;;;;;;3.77;1.90;;;;;;;;;;5016773;28;20475;-72
2023/01/04 02:04:37;;;;;;;3.07;2.10;;;;;;;;;;5018627;28;20907;-74
2023/01/04 02:07:31;;;;;;;3.53;2.00;;;;;;;;;;5010427;28;20461;-72
2023/01/04 02:10:23;;;;;;;4.37;2.10;;;;;;;;;;5001760;28;20472;-72
2023/01/04 02:13:16;;;;;;;2.33;1.80;;;;;;;;;;4999967;28;20452;-72
2023/01/04 02:16:10;;;;;;;3.10;2.07;;;;;;;;;;5005602;28;20448;-73
2023/01/04 02:19:06;;;;;;;5.90;2.10;;;;;;;;;;4997126;28;20497;-72
2023/01/04 02:22:05;;;;;;;4.83;2.30;;;;;;;;;;4992579;28;20476;-72
2023/01/04 02:25:09;;;;;;;2.70;2.00;;;;;;;;;;5012066;28;20637;-73
2023/01/04 02:28:00;;;;;;;2.23;1.67;;;;;;;;;;4998329;28;20464;-72
2023/01/04 02:31:10;;;;;;;3.87;1.90;;;;;;;;;;5005382;28;20483;-74
2023/01/04 02:34:04;;;;;;;3.07;1.63;;;;;;;;;;4999670;28;20475;-74
2023/01/04 02:36:55;;;;;;;1.50;1.40;;;;;;;;;;5015746;28;20448;-74
2023/01/04 02:39:50;;;;;;;2.30;2.10;;;;;;;;;;5005330;28;20985;-72
2023/01/04 02:45:51;;;;;;;3.20;2.10;;;;;;;;;;5004359;28;20582;-72
2023/01/04 02:51:48;;;;;;;3.03;1.70;;;;;;;;;;5005552;28;20482;-72
2023/01/04 02:54:38;;;;;;;3.10;1.93;;;;;;;;;;5014986;28;20854;-73
2023/01/04 02:57:32;;;;;;;6.97;2.20;;;;;;;;;;5018772;28;20464;-72
2023/01/04 03:00:31;;;;;;;3.17;2.10;;;;;;;;;;5004925;28;20856;-74
2023/01/04 03:06:38;;;;;;;2.97;1.83;;;;;;;;;;5006156;28;20488;-73
2023/01/04 03:09:32;;;;;;;2.90;2.20;;;;;;;;;;5003834;28;20445;-72
2023/01/04 03:12:34;;;;;;;2.27;1.80;;;;;;;;;;5001056;28;20480;-72
2023/01/04 03:15:29;;;;;;;6.70;2.40;;;;;;;;;;5003833;28;20533;-72
2023/01/04 03:18:19;;;;;;;3.63;1.90;;;;;;;;;;5008083;28;20468;-73
2023/01/04 03:21:12;;;;;;;3.20;1.83;;;;;;;;;;5000763;28;20498;-74
2023/01/04 03:36:46;;;;;;;2.50;1.80;;;;;;;;;;5020685;28;20876;-73
2023/01/04 03:49:15;;;;;;;1.87;1.70;;;;;;;;;;5019647;28;20452;-75
2023/01/04 03:52:06;;;;;;;2.83;2.10;;;;;;;;;;5014424;28;21006;-73
2023/01/04 03:55:08;;;;;;;2.53;1.80;;;;;;;;;;5009385;28;20581;-73
2023/01/04 03:57:57;;;;;;;3.10;1.93;;;;;;;;;;5008920;28;20449;-74
2023/01/04 04:00:48;;;;;;;3.17;2.20;;;;;;;;;;5011908;28;21096;-73
2023/01/04 04:09:53;;;;;;;2.50;1.77;;;;;;;;;;5002191;28;20797;-74
2023/01/04 04:12:43;;;;;;;2.23;2.03;;;;;;;;;;4998797;28;20533;-74
2023/01/04 04:15:32;;;;;;;5.47;2.30;;;;;;;;;;5002407;28;20469;-73
2023/01/04 04:18:20;;;;;;;2.70;1.90;;;;;;;;;;5001406;28;20444;-74
2023/01/04 04:21:10;;;;;;;3.73;1.67;;;;;;;;;;5003815;28;20484;-73
2023/01/04 04:24:01;;;;;;;3.20;2.17;;;;;;;;;;4999039;28;20966;-73
2023/01/04 04:26:50;;;;;;;2.20;2.00;;;;;;;;;;4999852;28;20458;-75
2023/01/04 04:29:40;;;;;;;2.93;2.03;;;;;;;;;;5010047;28;20471;-75
2023/01/04 04:32:29;;;;;;;3.20;2.80;;;;;;;;;;5013124;28;20479;-73
2023/01/04 04:35:17;;;;;;;2.33;1.70;;;;;;;;;;4998179;28;20511;-74
2023/01/04 04:38:11;;;;;;;2.87;2.23;;;;;;;;;;4989695;28;20621;-72
2023/01/04 04:44:08;;;;;;;2.70;1.90;;;;;;;;;;4998224;28;21162;-75
2023/01/04 04:46:58;;;;;;;2.50;2.27;;;;;;;;;;4993952;28;20483;-72
2023/01/04 04:49:50;;;;;;;3.23;1.90;;;;;;;;;;4999944;28;20448;-73
2023/01/04 04:52:41;;;;;;;2.73;2.30;;;;;;;;;;4994791;28;20538;-74
2023/01/04 04:55:46;;;;;;;2.50;2.10;;;;;;;;;;4992084;28;20487;-73
2023/01/04 04:58:36;;;;;;;4.77;2.20;;;;;;;;;;4994040;28;20463;-74
2023/01/04 05:01:33;;;;;;;4.40;1.97;;;;;;;;;;5006466;28;20483;-73
2023/01/04 05:04:27;;;;;;;2.50;2.30;;;;;;;;;;5010919;28;20494;-73
2023/01/04 05:07:16;;;;;;;4.13;2.33;;;;;;;;;;4997780;28;21089;-75
2023/01/04 05:10:06;;;;;;;4.23;2.07;;;;;;;;;;4995162;28;20606;-73
2023/01/04 05:12:59;;;;;;;4.27;2.40;;;;;;;;;;4993141;28;20467;-75
2023/01/04 05:15:57;;;;;;;3.87;2.37;;;;;;;;;;5002443;28;20472;-73
2023/01/04 05:18:46;;;;;;;3.23;2.47;;;;;;;;;;5013077;28;20512;-76
2023/01/04 05:21:41;;;;;;;2.50;2.30;;;;;;;;;;5007041;28;20507;-73
2023/01/04 05:24:29;;;;;;;4.10;2.10;;;;;;;;;;4999362;28;20465;-73
2023/01/04 05:27:20;;;;;;;3.83;2.37;;;;;;;;;;4998661;28;21506;-72
2023/01/04 05:33:24;;;;;;;4.20;2.20;;;;;;;;;;5008773;28;20816;-73
2023/01/04 05:36:12;;;;;;;3.07;2.27;;;;;;;;;;5020082;28;20456;-72
2023/01/04 05:39:02;;;;;;;2.60;1.90;;;;;;;;;;5018565;28;20452;-73
2023/01/04 05:45:06;;;;;;;1.90;1.80;;;;;;;;;;5013075;28;20491;-73
2023/01/04 05:47:55;;;;;;;1.77;1.67;;;;;;;;;;5020246;28;20460;-72
2023/01/04 05:50:50;;;;;;;1.90;1.53;;;;;;;;;;5017215;28;21030;-73
2023/01/04 05:53:41;;;;;;;2.20;1.90;;;;;;;;;;5017378;28;21087;-74
2023/01/04 05:56:38;;;;;;;2.20;1.77;;;;;;;;;;5019115;28;20463;-73
2023/01/04 05:59:26;;;;;;;1.70;1.60;;;;;;;;;;5016966;28;20987;-72
2023/01/04 06:02:16;;;;;;;1.50;1.40;;;;;;;;;;5012746;28;20472;-73
2023/01/04 06:05:09;;;;;;;1.50;1.40;;;;;;;;;;5017263;28;20483;-72
2023/01/04 06:08:00;;;;;;;2.53;1.60;;;;;;;;;;5017314;28;20448;-72
2023/01/04 06:10:58;;;;;;;1.67;1.57;;;;;;;;;;4999874;28;20991;-73
2023/01/04 06:13:52;;;;;;;1.87;1.70;;;;;;;;;;4999622;28;20471;-73
2023/01/04 06:16:41;;;;;;;1.83;1.40;;;;;;;;;;5001087;28;22563;-72
2023/01/04 06:19:32;;;;;;;2.30;1.40;;;;;;;;;;5003736;28;20455;-71
2023/01/04 06:22:25;;;;;;;1.60;1.23;;;;;;;;;;4995931;28;20488;-72
2023/01/04 06:25:14;;;;;;;1.70;1.60;;;;;;;;;;4998022;28;20479;-73
2023/01/04 06:28:05;;;;;;;1.80;1.70;;;;;;;;;;4997801;28;20459;-73
2023/01/04 06:30:55;;;;;;;1.30;1.20;;;;;;;;;;5011894;28;20514;-72
2023/01/04 06:33:49;;;;;;;1.60;1.50;;;;;;;;;;5002689;28;20452;-73
2023/01/04 06:36:38;;;;;;;2.43;1.80;;;;;;;;;;5000807;28;22313;-74
2023/01/04 06:39:28;;;;;;;2.00;1.80;;;;;;;;;;4997062;28;20460;-73
2023/01/04 06:45:25;;;;;;;1.83;1.73;;;;;;;;;;5003905;28;20538;-73
2023/01/04 06:48:15;;;;;;;3.60;1.80;;;;;;;;;;4997804;28;20892;-74
2023/01/04 06:51:06;;;;;;;2.10;1.90;;;;;;;;;;4997135;28;20515;-72
2023/01/04 06:53:54;;;;;;;2.50;1.80;;;;;;;;;;4990067;28;20472;-73
2023/01/04 06:56:43;;;;;;;2.33;1.90;;;;;;;;;;4993801;28;20952;-72
2023/01/04 06:59:32;;;;;;;1.73;1.60;;;;;;;;;;4995461;28;20477;-71
2023/01/04 07:02:20;;;;;;;2.03;1.90;;;;;;;;;;5013662;28;20571;-71
2023/01/04 07:05:10;;;;;;;2.23;2.00;;;;;;;;;;5010390;28;21019;-72
2023/01/04 07:08:00;;;;;;;2.80;2.27;;;;;;;;;;5010190;28;20602;-75
2023/01/04 07:10:55;;;;;;;2.40;2.20;;;;;;;;;;5007998;28;21694;-73
2023/01/04 07:13:44;;;;;;;2.57;2.37;;;;;;;;;;5006307;28;20464;-72
2023/01/04 07:16:32;;;;;;;2.50;2.30;;;;;;;;;;5003983;28;20460;-72
2023/01/04 07:19:21;;;;;;;2.47;2.27;;;;;;;;;;5011532;28;20564;-71
2023/01/04 07:22:11;;;;;;;2.70;2.50;;;;;;;;;;5004550;28;20487;-72
2023/01/04 07:24:59;;;;;;;4.20;2.57;;;;;;;;;;4993212;28;20484;-72
2023/01/04 07:27:53;;;;;;;2.60;2.40;;;;;;;;;;5005997;28;20551;-71
2023/01/04 07:30:42;;;;;;;2.67;2.47;;;;;;;;;;5010931;28;21154;-72
2023/01/04 07:33:31;;;;;;;2.90;2.50;;;;;;;;;;5009709;28;20469;-72
2023/01/04 07:36:19;;;;;;;2.73;2.50;;;;;;;;;;4995703;28;21006;-74
2023/01/04 07:39:11;;;;;;;2.43;2.23;;;;;;;;;;4998122;28;20510;-74
2023/01/04 07:41:59;;;;;;;2.90;2.70;;;;;;;;;;5011988;28;20538;-71
2023/01/04 07:44:48;;;;;;;3.03;2.83;;;;;;;;;;5015416;28;20499;-73
2023/01/04 07:47:37;;;;;;;2.80;2.60;;;;;;;;;;5016910;28;20981;-73
2023/01/04 07:50:25;;;;;;;2.83;2.63;;;;;;;;;;5011626;28;20996;-75
2023/01/04 07:53:14;;;;;;;2.90;2.70;;;;;;;;;;5013247;28;20467;-73
2023/01/04 07:56:04;;;;;;;3.47;3.17;;;;;;;;;;5012060;28;20456;-76
2023/01/04 07:58:55;;;;;;;3.80;3.50;;;;;;;;;;5010512;28;20906;-74
2023/01/04 08:01:44;;;;;;;3.40;3.10;;;;;;;;;;5011944;28;20960;-73
2023/01/04 08:04:33;;;;;;;3.57;3.27;;;;;;;;;;5014222;28;20849;-74
2023/01/04 08:07:23;;;;;;;3.97;3.67;;;;;;;;;;5012209;28;20516;-75
2023/01/04 08:10:11;;;;;;;3.83;3.53;;;;;;;;;;4987718;28;20815;-76
2023/01/04 08:13:01;;;;;;;3.50;3.27;;;;;;;;;;5004991;28;20466;-70
2023/01/04 08:15:53;;;;;;;3.87;3.57;;;;;;;;;;5002554;28;20499;-71
2023/01/04 08:18:41;;;;;;;3.83;3.53;;;;;;;;;;5007556;28;20464;-70
2023/01/04 08:21:30;;;;;;;3.83;3.53;;;;;;;;;;5012461;28;20498;-71
2023/01/04 08:24:20;;;;;;;4.30;3.90;;;;;;;;;;5008737;28;20559;-70
2023/01/04 08:27:09;;;;;;;3.90;3.50;;;;;;;;;;5002536;28;20518;-70
2023/01/04 08:29:59;;;;;;;4.20;3.90;;;;;;;;;;5011967;28;20835;-69
2023/01/04 08:32:49;;;;;;;4.23;3.93;;;;;;;;;;5004717;28;20479;-70
2023/01/04 08:35:38;;;;;;;4.47;4.07;;;;;;;;;;5009336;28;20529;-70
2023/01/04 08:38:26;;;;;;;4.27;3.87;;;;;;;;;;5002712;28;20761;-70
2023/01/04 08:41:49;;;;;;;5.00;4.60;;;;;;;;;;4991839;28;20496;-69
2023/01/04 08:45:00;;;;;;;5.07;4.60;;;;;;;;;;4991074;28;20504;-70
2023/01/04 08:47:49;;;;;;;4.40;4.03;;;;;;;;;;5004325;28;20481;-70
2023/01/04 08:50:38;;;;;;;4.67;4.27;;;;;;;;;;4992382;28;20573;-69
2023/01/04 08:53:27;;;;;;;4.50;4.10;;;;;;;;;;4992297;28;20575;-68
2023/01/04 08:56:15;;;;;;;4.17;3.77;;;;;;;;;;4998361;28;20453;-68
2023/01/04 08:59:04;;;;;;;4.67;4.27;;;;;;;;;;5002054;28;20965;-68
2023/01/04 09:01:54;;;;;;;4.83;3.57;;;;;;;;;;5013187;28;20584;-68
2023/01/04 09:04:53;;;;;;;4.03;3.73;;;;;;;;;;5004877;28;20487;-68
2023/01/04 09:07:42;;;;;;;3.87;3.57;;;;;;;;;;5004153;28;20487;-68
2023/01/04 09:10:31;;;;;;;3.60;3.30;;;;;;;;;;5005856;28;20476;-69
2023/01/04 09:13:20;;;;;;;4.50;3.50;;;;;;;;;;5004705;28;20953;-69
2023/01/04 09:16:09;;;;;;;3.60;3.30;;;;;;;;;;5010617;28;20464;-69
2023/01/04 09:18:59;;;;;;;3.57;3.27;;;;;;;;;;5015331;28;20495;-69
2023/01/04 09:21:48;;;;;;;3.57;3.13;;;;;;;;;;5006636;28;20475;-69
2023/01/04 09:24:36;;;;;;;3.07;2.83;;;;;;;;;;5009151;28;20492;-68
2023/01/04 09:27:25;;;;;;;3.20;3.00;;;;;;;;;;5007231;28;20484;-69
2023/01/04 09:30:16;;;;;;;3.90;3.17;;;;;;;;;;5009850;28;20509;-68
2023/01/04 09:33:04;;;;;;;3.47;3.20;;;;;;;;;;5015246;28;20459;-68
2023/01/04 09:35:54;;;;;;;3.30;2.60;;;;;;;;;;5004325;28;20836;-69
2023/01/04 09:38:44;;;;;;;3.43;3.13;;;;;;;;;;5006496;28;20585;-69
2023/01/04 09:41:36;;;;;;;3.00;2.80;;;;;;;;;;5000992;28;20541;-69
2023/01/04 09:44:34;;;;;;;3.27;2.97;;;;;;;;;;5013007;28;20475;-70
2023/01/04 09:47:44;;;;;;;3.20;3.00;;;;;;;;;;5008488;28;20919;-71
2023/01/04 09:50:35;;;;;;;2.70;2.50;;;;;;;;;;5013432;28;20475;-70
2023/01/04 09:53:27;;;;;;;3.80;2.83;;;;;;;;;;5016645;28;20453;-69
2023/01/04 09:56:21;;;;;;;4.13;3.00;;;;;;;;;;5004673;28;20452;-68
2023/01/04 09:59:13;;;;;;;3.10;2.90;;;;;;;;;;5012827;28;20455;-69
2023/01/04 10:02:04;;;;;;;2.80;2.60;;;;;;;;;;5005601;28;20505;-69
2023/01/04 10:04:53;;;;;;;3.30;3.10;;;;;;;;;;5009663;28;21128;-68
2023/01/04 10:07:41;;;;;;;3.20;3.00;;;;;;;;;;5013274;28;20686;-68
2023/01/04 10:10:44;;;;;;;2.97;2.77;;;;;;;;;;5001754;28;20539;-68
2023/01/04 10:13:42;;;;;;;3.00;2.80;;;;;;;;;;5007661;28;20522;-68
2023/01/04 10:16:42;;;;;;;2.80;2.60;;;;;;;;;;5005851;28;20456;-68
2023/01/04 10:19:56;;;;;;;5.90;3.17;;;;;;;;;;5016920;28;20486;-68
2023/01/04 10:23:11;;;;;;;3.30;2.80;;;;;;;;;;5018106;28;20488;-69
2023/01/04 10:26:07;;;;;;;3.30;3.00;;;;;;;;;;5011263;28;20461;-69
2023/01/04 10:29:04;;;;;;;2.87;2.67;;;;;;;;;;5010398;28;20492;-68
2023/01/04 10:31:56;;;;;;;2.67;2.47;;;;;;;;;;5013335;28;20562;-69
2023/01/04 10:34:46;;;;;;;2.53;2.33;;;;;;;;;;5015502;28;20618;-69
2023/01/04 10:37:36;;;;;;;2.23;2.10;;;;;;;;;;5016892;28;20538;-68
2023/01/04 10:40:25;;;;;;;2.17;2.00;;;;;;;;;;5011941;28;20549;-68
2023/01/04 10:43:19;;;;;;;1.87;1.77;;;;;;;;;;5013256;28;20548;-68
2023/01/04 10:46:12;;;;;;;2.10;2.00;;;;;;;;;;5007015;28;21801;-69
2023/01/04 10:49:05;;;;;;;1.77;1.67;;;;;;;;;;5003787;28;20865;-68
2023/01/04 10:51:55;;;;;;;1.77;1.67;;;;;;;;;;5012805;28;20980;-68
2023/01/04 10:54:47;;;;;;;2.13;1.93;;;;;;;;;;5008658;28;20921;-68
2023/01/04 10:57:40;;;;;;;3.70;2.20;;;;;;;;;;5009489;28;20486;-68
2023/01/04 11:00:31;;;;;;;1.60;1.50;;;;;;;;;;5010808;28;20501;-69
2023/01/04 11:03:21;;;;;;;1.90;1.80;;;;;;;;;;5012361;28;20460;-69
2023/01/04 11:06:14;;;;;;;1.80;1.70;;;;;;;;;;5009137;28;20451;-69
2023/01/04 11:09:04;;;;;;;1.70;1.60;;;;;;;;;;5009506;28;20486;-73
2023/01/04 11:11:54;;;;;;;2.10;2.00;;;;;;;;;;5005083;28;20484;-70
2023/01/04 11:14:42;;;;;;;2.30;2.10;;;;;;;;;;5014746;28;20476;-70
2023/01/04 11:17:33;;;;;;;1.83;1.70;;;;;;;;;;5013240;28;20463;-70
2023/01/04 11:20:21;;;;;;;1.73;1.63;;;;;;;;;;5013609;28;20818;-70
2023/01/04 11:23:15;;;;;;;2.10;2.00;;;;;;;;;;5013845;28;20467;-70
2023/01/04 11:26:07;;;;;;;3.43;2.10;;;;;;;;;;5016662;28;20460;-70
2023/01/04 11:28:58;;;;;;;2.10;1.80;;;;;;;;;;5013652;28;20642;-72
2023/01/04 11:31:49;;;;;;;2.07;1.97;;;;;;;;;;5014940;28;21031;-72
2023/01/04 11:34:46;;;;;;;2.07;1.97;;;;;;;;;;5018789;28;20595;-72
2023/01/04 11:37:36;;;;;;;2.07;1.97;;;;;;;;;;5019055;28;20539;-72
2023/01/04 11:40:27;;;;;;;1.90;1.80;;;;;;;;;;5016225;28;20472;-70
2023/01/04 11:43:17;;;;;;;1.70;1.60;;;;;;;;;;5019007;28;20464;-73
2023/01/04 11:46:06;;;;;;;2.10;2.00;;;;;;;;;;5017742;28;20468;-73
2023/01/04 11:48:56;;;;;;;1.80;1.70;;;;;;;;;;5011207;28;20603;-72
2023/01/04 11:51:46;;;;;;;1.80;1.70;;;;;;;;;;5010681;28;21027;-69
2023/01/04 11:54:35;;;;;;;1.77;1.67;;;;;;;;;;4988178;28;20484;-70
2023/01/04 11:57:24;;;;;;;1.83;1.73;;;;;;;;;;4994842;28;21226;-70
2023/01/04 12:00:15;;;;;;;2.00;1.90;;;;;;;;;;4995822;28;20530;-70
2023/01/04 12:03:21;;;;;;;1.77;1.67;;;;;;;;;;4990307;28;23819;-70
2023/01/04 12:06:12;;;;;;;2.00;1.90;;;;;;;;;;5005857;28;20548;-70
2023/01/04 12:09:02;;;;;;;1.60;1.50;;;;;;;;;;5006417;28;20848;-70
2023/01/04 12:11:52;;;;;;;1.70;1.60;;;;;;;;;;5013360;28;21534;-70
2023/01/04 12:14:44;;;;;;;1.80;1.70;;;;;;;;;;5014956;28;20479;-70
2023/01/04 12:17:47;;;;;;;1.80;1.70;;;;;;;;;;5014168;28;20729;-71
2023/01/04 12:20:36;;;;;;;1.60;1.50;;;;;;;;;;5013273;28;22894;-72
2023/01/04 12:23:25;;;;;;;1.80;1.70;;;;;;;;;;5012585;28;20865;-72
2023/01/04 12:26:15;;;;;;;1.50;1.40;;;;;;;;;;5013094;28;20457;-74
2023/01/04 12:29:22;;;;;;;1.33;1.23;;;;;;;;;;5012641;28;20987;-72
2023/01/04 12:32:30;;;;;;;1.57;1.50;;;;;;;;;;5013237;28;20491;-73
2023/01/04 12:35:40;;;;;;;1.33;1.27;;;;;;;;;;5013543;28;20472;-73
2023/01/04 12:38:48;;;;;;;1.50;1.40;;;;;;;;;;4999733;28;20941;-70
2023/01/04 12:42:04;;;;;;;1.60;1.50;;;;;;;;;;5007262;28;20488;-71
2023/01/04 12:45:23;;;;;;;1.60;1.50;;;;;;;;;;5007589;28;21681;-72
2023/01/04 12:51:33;;;;;;;1.90;1.80;;;;;;;;;;5006188;28;20529;-73
2023/01/04 12:54:46;;;;;;;1.80;1.70;;;;;;;;;;5011069;28;21095;-73
2023/01/04 12:57:35;;;;;;;1.90;1.80;;;;;;;;;;5012702;28;20457;-74
2023/01/04 13:00:46;;;;;;;2.10;1.90;;;;;;;;;;5012532;28;20494;-76
2023/01/04 13:03:36;;;;;;;2.33;2.13;;;;;;;;;;5003237;28;20449;-78
2023/01/04 13:06:27;;;;;;;2.40;2.30;;;;;;;;;;5013093;28;20965;-84
2023/01/04 13:09:19;;;;;;;2.43;2.33;;;;;;;;;;5004046;28;20511;-74
2023/01/04 13:12:29;;;;;;;2.33;2.10;;;;;;;;;;5008648;28;20970;-73
2023/01/04 13:15:22;;;;;;;2.07;1.97;;;;;;;;;;4997351;28;20567;-75
2023/01/04 13:18:25;;;;;;;2.83;2.60;;;;;;;;;;4999899;28;20926;-73
2023/01/04 13:21:15;;;;;;;2.80;2.60;;;;;;;;;;4994764;28;20574;-74
2023/01/04 13:24:06;;;;;;;3.00;2.70;;;;;;;;;;4990838;28;22142;-72
2023/01/04 13:26:56;;;;;;;2.93;2.73;;;;;;;;;;4986946;28;27942;-73
2023/01/04 13:29:45;;;;;;;2.90;2.70;;;;;;;;;;4991591;28;21252;-75
2023/01/04 13:32:34;;;;;;;3.23;2.60;;;;;;;;;;5000003;28;20491;-74
2023/01/04 13:35:43;;;;;;;2.80;2.60;;;;;;;;;;4999818;28;20822;-73
2023/01/04 13:38:32;;;;;;;2.80;2.63;;;;;;;;;;4998050;28;20444;-72
2023/01/04 13:41:22;;;;;;;3.03;2.83;;;;;;;;;;4996259;28;20487;-72
2023/01/04 13:44:16;;;;;;;2.47;2.27;;;;;;;;;;4989563;28;20486;-73
2023/01/04 13:47:05;;;;;;;3.07;2.83;;;;;;;;;;4994634;28;20468;-72
2023/01/04 13:49:53;;;;;;;2.73;2.57;;;;;;;;;;4995801;28;20529;-75
2023/01/04 13:52:44;;;;;;;3.03;2.70;;;;;;;;;;4982973;28;20999;-74
2023/01/04 13:55:52;;;;;;;2.80;2.60;;;;;;;;;;5000707;28;20588;-74
2023/01/04 13:58:40;;;;;;;3.90;2.90;;;;;;;;;;4993374;28;20591;-72
2023/01/04 14:01:32;;;;;;;3.10;2.90;;;;;;;;;;4999691;28;20601;-73
2023/01/04 14:04:25;;;;;;;2.80;2.60;;;;;;;;;;4998473;28;20491;-74
2023/01/04 14:07:14;;;;;;;3.47;2.50;;;;;;;;;;5002817;28;20529;-74
2023/01/04 14:10:02;;;;;;;2.80;2.60;;;;;;;;;;5001413;28;20482;-73
2023/01/04 14:12:51;;;;;;;2.83;2.43;;;;;;;;;;4997911;28;20921;-74
2023/01/04 14:15:40;;;;;;;2.87;2.50;;;;;;;;;;5001844;28;20515;-72
2023/01/04 14:18:31;;;;;;;3.43;2.67;;;;;;;;;;5000373;28;20459;-73
2023/01/04 14:21:19;;;;;;;2.93;2.30;;;;;;;;;;5003277;28;20605;-73
2023/01/04 14:24:23;;;;;;;3.13;2.47;;;;;;;;;;5001323;28;20475;-73
2023/01/04 14:27:32;;;;;;;2.70;2.50;;;;;;;;;;5005819;28;20865;-75
2023/01/04 14:30:24;;;;;;;3.13;2.20;;;;;;;;;;5000889;28;20831;-72
2023/01/04 14:33:16;;;;;;;3.23;2.57;;;;;;;;;;5002042;28;20456;-73
2023/01/04 14:36:11;;;;;;;2.13;1.93;;;;;;;;;;4991409;28;20452;-73
2023/01/04 14:39:09;;;;;;;3.37;1.77;;;;;;;;;;4996305;28;20447;-72
2023/01/04 14:41:59;;;;;;;2.10;1.53;;;;;;;;;;5016559;22;20546;-76
2023/01/04 14:44:47;;;;;;;3.27;2.13;;;;;;;;;;4979225;28;20842;-75
2023/01/04 14:47:36;;;;;;;2.27;1.60;;;;;;;;;;4990221;28;20456;-75
2023/01/04 14:50:24;;;;;;;2.07;1.27;;;;;;;;;;4984669;28;20496;-74
2023/01/04 14:53:15;;;;;;;2.70;1.53;;;;;;;;;;4968624;28;20585;-74
2023/01/04 14:56:05;;;;;;;6.30;3.00;;;;;;;;;;4966791;28;21051;-78
2023/01/04 14:58:54;;;;;;;3.70;1.50;;;;;;;;;;4979253;28;20449;-72
2023/01/04 15:01:43;;;;;;;4.67;1.83;;;;;;;;;;4991092;28;20488;-74
2023/01/04 15:04:31;;;;;;;4.80;1.90;;;;;;;;;;4995996;28;20453;-75
2023/01/04 15:07:34;;;;;;;3.00;2.13;;;;;;;;;;4985481;28;20450;-74
2023/01/04 15:10:24;;;;;;;2.30;1.57;;;;;;;;;;4983039;28;20829;-74
2023/01/04 15:13:13;;;;;;;6.27;2.13;;;;;;;;;;4979509;28;22141;-75
2023/01/04 15:16:02;;;;;;;6.10;2.30;;;;;;;;;;4984416;28;20472;-74
2023/01/04 15:18:50;;;;;;;4.80;1.80;;;;;;;;;;4994632;28;20491;-75
2023/01/04 15:21:39;;;;;;;2.83;1.77;;;;;;;;;;5002880;28;20488;-75
2023/01/04 15:24:29;;;;;;;5.33;1.80;;;;;;;;;;5002202;28;20449;-75
2023/01/04 15:27:19;;;;;;;6.13;1.67;;;;;;;;;;4994453;28;20457;-75
2023/01/04 15:30:13;;;;;;;3.90;1.90;;;;;;;;;;4996227;28;20491;-75
2023/01/04 15:33:02;;;;;;;4.00;1.60;;;;;;;;;;4993811;28;20579;-75
2023/01/04 15:35:58;;;;;;;2.93;1.53;;;;;;;;;;4994613;28;20519;-75
2023/01/04 15:38:46;;;;;;;5.07;2.33;;;;;;;;;;4999673;28;20493;-72
2023/01/04 15:44:43;;;;;;;5.23;2.03;;;;;;;;;;4990867;28;20475;-75
2023/01/04 15:47:32;;;;;;;5.43;2.00;;;;;;;;;;4986138;28;20465;-72
2023/01/04 15:50:21;;;;;;;4.87;2.50;;;;;;;;;;4991032;28;20616;-76
2023/01/04 15:53:10;;;;;;;5.87;2.37;;;;;;;;;;4975910;28;20566;-75
2023/01/04 15:56:07;;;;;;;5.63;2.30;;;;;;;;;;4982770;28;20588;-76
2023/01/04 15:58:56;;;;;;;6.20;2.43;;;;;;;;;;4996147;28;20841;-75
2023/01/04 16:01:46;;;;;;;5.67;2.87;;;;;;;;;;4992776;28;20485;-75
2023/01/04 16:04:36;;;;;;;4.93;2.20;;;;;;;;;;4994568;28;20515;-74
2023/01/04 16:07:24;;;;;;;7.90;2.37;;;;;;;;;;4992199;28;20461;-75
2023/01/04 16:10:20;;;;;;;6.00;2.50;;;;;;;;;;4995098;28;20493;-78
2023/01/04 16:13:08;;;;;;;4.77;2.30;;;;;;;;;;4988441;28;20784;-76
2023/01/04 16:16:00;;;;;;;7.27;2.60;;;;;;;;;;4986100;28;20473;-76
2023/01/04 16:18:51;;;;;;;7.73;2.50;;;;;;;;;;4986156;28;20537;-78
2023/01/04 16:21:40;;;;;;;4.40;2.47;;;;;;;;;;4990026;28;20630;-75
2023/01/04 16:24:28;;;;;;;5.40;2.70;;;;;;;;;;4973857;28;20449;-75
2023/01/04 16:27:38;;;;;;;6.70;2.43;;;;;;;;;;4971961;28;20465;-76
2023/01/04 16:30:26;;;;;;;6.20;2.60;;;;;;;;;;4983433;28;20480;-75
2023/01/04 16:33:17;;;;;;;5.23;2.40;;;;;;;;;;4974331;28;20963;-75
2023/01/04 16:36:08;;;;;;;6.50;3.20;;;;;;;;;;4975463;28;20998;-76
2023/01/04 16:38:57;;;;;;;5.63;2.53;;;;;;;;;;4985773;28;21290;-75
2023/01/04 16:41:47;;;;;;;7.93;2.67;;;;;;;;;;4986815;28;20500;-76
2023/01/04 16:44:35;;;;;;;4.37;2.30;;;;;;;;;;4984772;28;20514;-76
2023/01/04 16:47:24;;;;;;;4.47;2.33;;;;;;;;;;4983604;28;20998;-75
2023/01/04 16:50:13;;;;;;;3.47;2.50;;;;;;;;;;4981213;28;20477;-74
2023/01/04 16:53:03;;;;;;;8.33;2.90;;;;;;;;;;4980382;28;20478;-74
2023/01/04 16:55:52;;;;;;;4.20;2.07;;;;;;;;;;4986040;28;20484;-77
2023/01/04 16:58:43;;;;;;;5.57;2.70;;;;;;;;;;4991958;28;20453;-75
2023/01/04 17:01:32;;;;;;;5.53;2.40;;;;;;;;;;4988149;28;20496;-73
2023/01/04 17:04:21;;;;;;;2.60;2.20;;;;;;;;;;5001147;28;20468;-75
2023/01/04 17:07:10;;;;;;;4.47;2.30;;;;;;;;;;5000293;28;20539;-75
2023/01/04 17:10:00;;;;;;;4.90;2.40;;;;;;;;;;4998395;28;20467;-75
2023/01/04 17:12:49;;;;;;;7.43;2.30;;;;;;;;;;4992761;28;20519;-75
2023/01/04 17:15:40;;;;;;;6.60;2.50;;;;;;;;;;4983432;28;20457;-75
2023/01/04 17:18:32;;;;;;;4.87;2.17;;;;;;;;;;4999186;28;20978;-76
2023/01/04 17:21:31;;;;;;;5.23;2.40;;;;;;;;;;4987774;28;20488;-74
2023/01/04 17:24:22;;;;;;;5.77;2.50;;;;;;;;;;4995899;28;20449;-74
2023/01/04 17:27:12;;;;;;;7.37;2.40;;;;;;;;;;4998395;28;20461;-74
2023/01/04 17:30:02;;;;;;;4.13;2.67;;;;;;;;;;4993470;28;20461;-74
2023/01/04 17:33:04;;;;;;;3.93;2.23;;;;;;;;;;4997518;28;20473;-74
2023/01/04 17:36:01;;;;;;;5.87;2.80;;;;;;;;;;4996882;28;20453;-76
2023/01/04 17:38:50;;;;;;;4.47;2.40;;;;;;;;;;5000038;28;20441;-74
2023/01/04 17:41:41;;;;;;;6.80;2.70;;;;;;;;;;4997643;28;20483;-77
2023/01/04 17:44:33;;;;;;;6.00;2.53;;;;;;;;;;5000447;28;20456;-75
2023/01/04 17:47:21;;;;;;;8.30;3.10;;;;;;;;;;4993611;28;20850;-76
2023/01/04 17:50:10;;;;;;;7.67;2.60;;;;;;;;;;4995946;28;20969;-76
2023/01/04 17:53:02;;;;;;;12.00;3.17;;;;;;;;;;4994306;28;20495;-76
2023/01/04 17:55:54;;;;;;;9.37;2.47;;;;;;;;;;5000206;28;20449;-77
2023/01/04 17:58:48;;;;;;;7.70;3.00;;;;;;;;;;5000436;28;20453;-77
2023/01/04 18:01:40;;;;;;;6.17;2.83;;;;;;;;;;4995493;28;20484;-76
2023/01/04 18:04:29;;;;;;;10.03;3.83;;;;;;;;;;4993427;28;20484;-76
2023/01/04 18:07:25;;;;;;;9.40;2.93;;;;;;;;;;5002766;28;20456;-75
2023/01/04 18:10:14;;;;;;;8.23;3.00;;;;;;;;;;4993485;28;20464;-75